createdAt,value
2023-03-12T00:02:24.141Z,100698.22
2023-03-12T00:04:53.711Z,100723.78
2023-03-12T00:07:23.367Z,100694.78
2023-03-12T00:09:52.872Z,100706.59
2023-03-12T00:12:22.399Z,100728.41
2023-03-12T00:14:52.044Z,100703.00
2023-03-12T00:17:21.580Z,100663.50
2023-03-12T00:19:57.224Z,100675.13
2023-03-12T00:22:27.281Z,100697.06
2023-03-12T00:25:01.167Z,100678.25
2023-03-12T00:27:30.951Z,100672.22
2023-03-12T00:30:00.464Z,100687.31
2023-03-12T00:32:30.099Z,100681.84
2023-03-12T00:34:59.649Z,100670.13
2023-03-12T00:37:29.515Z,100679.63
2023-03-12T00:39:59.159Z,100691.25
2023-03-12T00:42:28.788Z,100686.22
2023-03-12T00:44:58.422Z,100681.72
2023-03-12T00:47:28.040Z,100701.44
2023-03-12T00:49:57.673Z,100720.75
2023-03-12T00:52:27.342Z,100712.25
2023-03-12T00:54:59.824Z,100703.56
2023-03-12T00:57:29.437Z,100694.84
2023-03-12T00:59:58.956Z,100678.81
2023-03-12T01:02:28.691Z,100694.25
2023-03-12T01:04:58.346Z,100700.97
2023-03-12T01:07:27.968Z,100705.88
2023-03-12T01:09:57.568Z,100727.47
2023-03-12T01:12:27.274Z,100748.34
2023-03-12T01:14:56.832Z,100756.38
2023-03-12T01:17:26.533Z,100741.41
2023-03-12T01:19:56.184Z,100748.34
2023-03-12T01:22:25.819Z,100757.19
2023-03-12T01:24:55.355Z,100746.03
2023-03-12T01:27:25.007Z,100758.69
2023-03-12T01:29:54.581Z,100764.38
2023-03-12T01:32:24.371Z,100759.75
2023-03-12T01:34:53.975Z,100765.34
2023-03-12T01:37:23.593Z,100779.69
2023-03-12T01:39:53.268Z,100777.72
2023-03-12T01:42:23.184Z,100776.09
2023-03-12T01:45:00.064Z,100774.47
2023-03-12T01:47:33.492Z,100780.72
2023-03-12T01:50:03.333Z,100784.66
2023-03-12T01:52:38.657Z,100788.38
2023-03-12T01:55:16.938Z,100800.69
2023-03-12T01:57:51.784Z,100799.59
2023-03-12T02:00:25.702Z,100786.50
2023-03-12T02:03:01.064Z,100786.00
2023-03-12T02:05:56.219Z,100796.34
2023-03-12T02:08:26.707Z,100790.28
2023-03-12T02:10:56.424Z,100781.44
2023-03-12T02:13:26.033Z,100782.25
2023-03-12T02:15:56.012Z,100763.44
2023-03-12T02:18:25.873Z,100763.75
2023-03-12T02:21:28.216Z,100769.66
2023-03-12T02:24:08.281Z,100776.38
2023-03-12T02:26:40.696Z,100779.16
2023-03-12T02:29:12.392Z,100779.19
2023-03-12T02:31:50.641Z,100766.88
2023-03-12T02:34:20.215Z,100764.91
2023-03-12T02:36:51.077Z,100762.59
2023-03-12T02:39:21.191Z,100756.09
2023-03-12T02:42:00.936Z,100753.91
2023-03-12T02:44:34.815Z,100747.19
2023-03-12T02:47:04.798Z,100749.16
2023-03-12T02:49:37.307Z,100751.75
2023-03-12T02:52:07.139Z,100746.56
2023-03-12T02:54:36.646Z,100762.75
2023-03-12T02:57:06.462Z,100764.56
2023-03-12T02:59:36.096Z,100772.13
2023-03-12T03:02:06.017Z,100777.06
2023-03-12T03:04:36.477Z,100775.91
2023-03-12T03:07:06.238Z,100786.38
2023-03-12T03:09:35.909Z,100795.09
2023-03-12T03:12:05.592Z,100787.41
2023-03-12T03:14:35.212Z,100783.00
2023-03-12T03:17:04.757Z,100786.09
2023-03-12T03:19:34.294Z,100794.47
2023-03-12T03:22:03.984Z,100788.56
2023-03-12T03:24:33.545Z,100789.72
2023-03-12T03:27:03.082Z,100786.94
2023-03-12T03:29:32.686Z,100785.63
2023-03-12T03:32:02.241Z,100783.31
2023-03-12T03:34:31.868Z,100785.56
2023-03-12T03:37:01.432Z,100785.91
2023-03-12T03:39:31.981Z,100779.19
2023-03-12T03:42:01.505Z,100784.41
2023-03-12T03:44:31.968Z,100768.84
2023-03-12T03:47:01.663Z,100777.69
2023-03-12T03:49:31.304Z,100780.94
2023-03-12T03:52:00.872Z,100791.63
2023-03-12T03:54:32.564Z,100778.16
2023-03-12T03:57:02.357Z,100781.63
2023-03-12T03:59:31.920Z,100779.19
2023-03-12T04:02:03.755Z,100777.69
2023-03-12T04:04:33.588Z,100771.16
2023-03-12T04:07:03.106Z,100761.94
2023-03-12T04:09:32.642Z,100756.34
2023-03-12T04:12:02.219Z,100768.47
2023-03-12T04:14:32.421Z,100764.72
2023-03-12T04:17:01.962Z,100757.16
2023-03-12T04:19:31.508Z,100747.53
2023-03-12T04:22:01.054Z,100742.97
2023-03-12T04:24:30.751Z,100744.47
2023-03-12T04:27:00.876Z,100740.66
2023-03-12T04:29:30.694Z,100749.16
2023-03-12T04:32:00.233Z,100739.63
2023-03-12T04:34:29.751Z,100744.06
2023-03-12T04:36:59.377Z,100745.56
2023-03-12T04:39:28.929Z,100745.91
2023-03-12T04:41:58.524Z,100734.38
2023-03-12T04:44:28.234Z,100736.22
2023-03-12T04:46:57.840Z,100737.97
2023-03-12T04:49:27.452Z,100730.75
2023-03-12T04:51:57.036Z,100735.06
2023-03-12T04:54:26.629Z,100733.69
2023-03-12T04:56:56.312Z,100736.00
2023-03-12T04:59:25.991Z,100717.91
2023-03-12T05:01:55.756Z,100729.88
2023-03-12T05:04:25.336Z,100715.81
2023-03-12T05:06:54.960Z,100711.06
2023-03-12T05:09:24.526Z,100708.41
2023-03-12T05:11:54.132Z,100707.03
2023-03-12T05:14:23.712Z,100703.56
2023-03-12T05:16:53.319Z,100700.22
2023-03-12T05:19:22.853Z,100701.72
2023-03-12T05:21:52.622Z,100697.84
2023-03-12T05:24:23.638Z,100698.31
2023-03-12T05:26:53.220Z,100689.50
2023-03-12T05:29:22.818Z,100699.13
2023-03-12T05:31:52.593Z,100693.31
2023-03-12T05:34:22.155Z,100681.47
2023-03-12T05:36:51.805Z,100686.22
2023-03-12T05:39:21.555Z,100683.56
2023-03-12T05:41:51.236Z,100687.38
2023-03-12T05:44:20.836Z,100688.00
2023-03-12T05:46:50.370Z,100687.72
2023-03-12T05:49:20.456Z,100692.28
2023-03-12T05:51:53.033Z,100694.72
2023-03-12T05:54:22.580Z,100689.16
2023-03-12T05:56:52.179Z,100696.13
2023-03-12T05:59:21.769Z,100696.69
2023-03-12T06:01:51.308Z,100695.75
2023-03-12T06:04:20.823Z,100703.63
2023-03-12T06:06:50.365Z,100696.69
2023-03-12T06:09:20.107Z,100700.97
2023-03-12T06:11:49.697Z,100691.94
2023-03-12T06:14:19.372Z,100695.63
2023-03-12T06:16:49.014Z,100694.00
2023-03-12T06:19:18.713Z,100689.16
2023-03-12T06:21:48.325Z,100690.31
2023-03-12T06:24:17.877Z,100696.69
2023-03-12T06:26:47.997Z,100688.94
2023-03-12T06:29:17.643Z,100676.28
2023-03-12T06:31:47.414Z,100673.84
2023-03-12T06:34:18.316Z,100686.38
2023-03-12T06:36:47.961Z,100678.25
2023-03-12T06:39:17.612Z,100683.34
2023-03-12T06:41:47.269Z,100676.41
2023-03-12T06:44:16.942Z,100674.94
2023-03-12T06:46:46.892Z,100681.31
2023-03-12T06:49:17.310Z,100671.81
2023-03-12T06:51:46.968Z,100675.75
2023-03-12T06:54:16.780Z,100679.88
2023-03-12T06:56:47.541Z,100666.22
2023-03-12T06:59:17.106Z,100676.56
2023-03-12T07:01:46.675Z,100672.69
2023-03-12T07:04:16.441Z,100669.06
2023-03-12T07:06:46.445Z,100666.41
2023-03-12T07:09:15.970Z,100666.09
2023-03-12T07:11:46.095Z,100661.34
2023-03-12T07:14:15.616Z,100664.59
2023-03-12T07:16:45.206Z,100665.88
2023-03-12T07:19:14.801Z,100657.88
2023-03-12T07:21:44.355Z,100664.59
2023-03-12T07:24:13.901Z,100667.50
2023-03-12T07:26:45.178Z,100672.81
2023-03-12T07:29:14.753Z,100646.38
2023-03-12T07:31:44.390Z,100659.03
2023-03-12T07:34:14.184Z,100661.34
2023-03-12T07:36:44.116Z,100664.31
2023-03-12T07:39:13.758Z,100661.34
2023-03-12T07:41:43.471Z,100657.94
2023-03-12T07:44:13.217Z,100647.69
2023-03-12T07:46:42.941Z,100652.53
2023-03-12T07:49:12.594Z,100656.75
2023-03-12T07:51:42.448Z,100655.78
2023-03-12T07:54:12.108Z,100664.38
2023-03-12T07:56:41.753Z,100659.63
2023-03-12T07:59:11.471Z,100653.81
2023-03-12T08:01:41.672Z,100658.25
2023-03-12T08:04:12.751Z,100657.28
2023-03-12T08:06:44.578Z,100677.50
2023-03-12T08:09:14.409Z,100671.09
2023-03-12T08:11:44.662Z,100668.56
2023-03-12T08:14:14.402Z,100664.97
2023-03-12T08:16:44.496Z,100658.38
2023-03-12T08:19:14.171Z,100671.03
2023-03-12T08:21:44.049Z,100672.31
2023-03-12T08:24:13.694Z,100678.91
2023-03-12T08:26:43.256Z,100683.19
2023-03-12T08:29:12.904Z,100688.16
2023-03-12T08:31:57.541Z,100689.91
2023-03-12T08:34:31.323Z,100700.09
2023-03-12T08:37:00.903Z,100704.19
2023-03-12T08:39:30.721Z,100704.72
2023-03-12T08:42:00.419Z,100706.56
2023-03-12T08:44:30.198Z,100707.69
2023-03-12T08:46:59.869Z,100715.72
2023-03-12T08:49:29.565Z,100715.38
2023-03-12T08:51:59.097Z,100718.56
2023-03-12T08:54:28.637Z,100721.50
2023-03-12T08:56:58.288Z,100733.91
2023-03-12T08:59:28.471Z,100736.38
2023-03-12T09:01:58.881Z,100726.69
2023-03-12T09:04:28.605Z,100737.38
2023-03-12T09:06:58.291Z,100739.50
2023-03-12T09:09:27.892Z,100748.66
2023-03-12T09:11:58.478Z,100758.03
2023-03-12T09:15:01.512Z,100758.53
2023-03-12T09:17:17.659Z,100767.53
2023-03-12T09:19:47.392Z,100766.72
2023-03-12T09:22:17.117Z,100783.44
2023-03-12T09:24:46.781Z,100777.06
2023-03-12T09:27:16.310Z,100778.41
2023-03-12T09:29:58.769Z,100780.41
2023-03-12T09:32:29.093Z,100798.22
2023-03-12T09:34:58.867Z,100800.84
2023-03-12T09:37:28.493Z,100807.28
2023-03-12T09:39:58.085Z,100816.44
2023-03-12T09:42:42.838Z,100827.09
2023-03-12T09:45:23.611Z,100823.97
2023-03-12T09:48:02.744Z,100819.09
2023-03-12T09:50:42.185Z,100826.44
2023-03-12T09:53:14.504Z,100831.03
2023-03-12T09:55:47.381Z,100847.41
2023-03-12T09:58:29.396Z,100847.88
2023-03-12T10:01:30.557Z,100861.31
2023-03-12T10:04:07.934Z,100857.56
2023-03-12T10:07:18.500Z,100856.41
2023-03-12T10:10:09.584Z,100859.56
2023-03-12T10:12:50.915Z,100868.41
2023-03-12T10:15:41.632Z,100874.47
2023-03-12T10:18:53.483Z,100881.03
2023-03-12T10:21:45.088Z,100884.78
2023-03-12T10:24:30.699Z,100895.44
2023-03-12T10:27:03.291Z,100895.09
2023-03-12T10:29:36.819Z,100904.44
2023-03-12T10:32:14.516Z,100912.44
2023-03-12T10:34:54.643Z,100916.72
2023-03-12T10:37:32.572Z,100919.47
2023-03-12T10:40:03.692Z,100928.16
2023-03-12T10:42:34.050Z,100936.50
2023-03-12T10:45:18.341Z,100938.63
2023-03-12T10:47:58.745Z,100939.28
2023-03-12T10:50:33.877Z,100950.88
2023-03-12T10:53:24.109Z,100968.22
2023-03-12T10:56:11.187Z,100973.31
2023-03-12T10:58:44.289Z,100971.34
2023-03-12T11:01:30.018Z,100981.66
2023-03-12T11:04:17.860Z,100972.16
2023-03-12T11:07:14.706Z,100978.38
2023-03-12T11:09:44.434Z,101000.09
2023-03-12T11:12:33.431Z,100993.56
2023-03-12T11:15:31.028Z,100996.66
2023-03-12T11:18:28.217Z,100993.56
2023-03-12T11:21:18.477Z,101007.13
2023-03-12T11:24:06.230Z,101003.84
2023-03-12T11:26:50.928Z,101014.97
2023-03-12T11:29:34.747Z,101020.03
2023-03-12T11:32:13.005Z,101017.53
2023-03-12T11:34:43.928Z,101015.09
2023-03-12T11:37:34.713Z,101023.09
2023-03-12T11:40:31.521Z,101034.72
2023-03-12T11:43:42.114Z,101029.50
2023-03-12T11:46:21.971Z,101044.53
2023-03-12T11:49:16.511Z,101039.13
2023-03-12T11:52:07.119Z,101030.47
2023-03-12T11:54:58.035Z,101030.78
2023-03-12T11:57:43.228Z,101046.31
2023-03-12T12:00:21.943Z,101046.47
2023-03-12T12:03:11.460Z,101060.03
2023-03-12T12:06:03.048Z,101042.38
2023-03-12T12:08:38.507Z,101055.47
2023-03-12T12:11:20.588Z,101069.81
2023-03-12T12:13:55.966Z,101061.00
2023-03-12T12:16:28.271Z,101064.44
2023-03-12T12:19:04.929Z,101074.59
2023-03-12T12:22:12.341Z,101073.09
2023-03-12T12:24:51.181Z,101063.88
2023-03-12T12:27:35.175Z,101066.06
2023-03-12T12:30:16.761Z,101079.75
2023-03-12T12:33:07.228Z,101069.44
2023-03-12T12:35:42.083Z,101081.34
2023-03-12T12:38:31.372Z,101089.75
2023-03-12T12:41:25.896Z,101085.94
2023-03-12T12:44:12.294Z,101096.22
2023-03-12T12:46:54.933Z,101101.16
2023-03-12T12:49:27.497Z,101113.38
2023-03-12T12:52:03.179Z,101089.84
2023-03-12T12:54:51.014Z,101103.06
2023-03-12T12:57:33.378Z,101108.63
2023-03-12T13:00:15.436Z,101098.34
2023-03-12T13:02:49.576Z,101099.97
2023-03-12T13:05:30.597Z,101113.81
2023-03-12T13:08:00.127Z,101123.47
2023-03-12T13:10:35.793Z,101119.56
2023-03-12T13:13:21.653Z,101129.03
2023-03-12T13:15:51.765Z,101142.59
2023-03-12T13:18:28.390Z,101121.34
2023-03-12T13:20:57.866Z,101139.16
2023-03-12T13:23:39.443Z,101140.84
2023-03-12T13:26:46.990Z,101138.50
2023-03-12T13:29:41.248Z,101148.81
2023-03-12T13:32:41.149Z,101156.63
2023-03-12T13:35:53.310Z,101146.34
2023-03-12T13:38:39.273Z,101150.94
2023-03-12T13:41:10.118Z,101153.53
2023-03-12T13:43:42.612Z,101151.72
2023-03-12T13:46:18.199Z,101152.22
2023-03-12T13:48:51.947Z,101149.44
2023-03-12T13:51:25.522Z,101158.09
2023-03-12T13:54:00.179Z,101153.50
2023-03-12T13:56:33.730Z,101161.00
2023-03-12T13:59:04.659Z,101150.91
2023-03-12T14:01:49.037Z,101153.69
2023-03-12T14:04:25.859Z,101164.59
2023-03-12T14:07:12.486Z,101155.06
2023-03-12T14:09:58.993Z,101154.81
2023-03-12T14:13:06.270Z,101148.25
2023-03-12T14:15:39.977Z,101154.44
2023-03-12T14:18:22.324Z,101162.78
2023-03-12T14:20:58.799Z,101163.69
2023-03-12T14:23:34.308Z,101170.97
2023-03-12T14:26:05.953Z,101170.66
2023-03-12T14:28:43.169Z,101176.66
2023-03-12T14:31:21.315Z,101168.19
2023-03-12T14:34:02.871Z,101174.00
2023-03-12T14:37:01.730Z,101175.31
2023-03-12T14:39:41.256Z,101177.28
2023-03-12T14:42:12.136Z,101172.53
2023-03-12T14:44:41.849Z,101156.94
2023-03-12T14:47:13.458Z,101162.50
2023-03-12T14:49:46.174Z,101180.31
2023-03-12T14:52:22.650Z,101176.06
2023-03-12T14:54:57.932Z,101180.19
2023-03-12T14:57:28.195Z,101181.75
2023-03-12T15:00:02.910Z,101195.13
2023-03-12T15:02:34.218Z,101192.75
2023-03-12T15:05:04.871Z,101192.22
2023-03-12T15:07:40.906Z,101193.00
2023-03-12T15:10:28.968Z,101195.75
2023-03-12T15:13:03.497Z,101202.66
2023-03-12T15:15:38.741Z,101195.44
2023-03-12T15:18:19.289Z,101199.16
2023-03-12T15:20:51.263Z,101209.66
2023-03-12T15:23:23.184Z,101210.38
2023-03-12T15:26:31.263Z,101209.97
2023-03-12T15:29:16.093Z,101200.91
2023-03-12T15:31:50.905Z,101215.00
2023-03-12T15:34:35.670Z,101207.31
2023-03-12T15:37:31.123Z,101220.78
2023-03-12T15:40:06.085Z,101226.53
2023-03-12T15:42:42.675Z,101223.44
2023-03-12T15:45:39.605Z,101227.16
2023-03-12T15:48:25.306Z,101232.06
2023-03-12T15:50:55.203Z,101228.47
2023-03-12T15:53:24.835Z,101227.97
2023-03-12T15:56:30.296Z,101238.94
2023-03-12T15:59:07.406Z,101246.28
2023-03-12T16:01:58.042Z,101229.09
2023-03-12T16:04:27.685Z,101235.75
2023-03-12T16:06:57.669Z,101233.53
2023-03-12T16:09:28.835Z,101231.97
2023-03-12T16:11:59.481Z,101229.38
2023-03-12T16:14:36.119Z,101230.00
2023-03-12T16:17:05.742Z,101230.84
2023-03-12T16:19:35.746Z,101217.91
2023-03-12T16:22:05.685Z,101226.72
2023-03-12T16:24:35.280Z,101225.09
2023-03-12T16:27:08.978Z,101228.88
2023-03-12T16:29:40.584Z,101236.81
2023-03-12T16:32:19.644Z,101231.69
2023-03-12T16:34:49.561Z,101242.16
2023-03-12T16:37:19.087Z,101234.28
2023-03-12T16:39:50.191Z,101239.69
2023-03-12T16:42:21.586Z,101244.53
2023-03-12T16:44:51.411Z,101249.16
2023-03-12T16:47:21.050Z,101243.00
2023-03-12T16:49:50.611Z,101238.06
2023-03-12T16:52:28.180Z,101239.19
2023-03-12T16:54:58.189Z,101233.56
2023-03-12T16:57:38.959Z,101238.06
2023-03-12T17:00:13.809Z,101226.56
2023-03-12T17:02:43.361Z,101226.56
2023-03-12T17:05:14.497Z,101231.19
2023-03-12T17:07:44.628Z,101230.28
2023-03-12T17:10:16.946Z,101225.63
2023-03-12T17:12:48.360Z,101226.38
2023-03-12T17:15:21.494Z,101225.03
2023-03-12T17:17:52.004Z,101232.31
2023-03-12T17:20:23.736Z,101238.28
2023-03-12T17:22:53.307Z,101240.44
2023-03-12T17:25:29.222Z,101242.06
2023-03-12T17:27:58.981Z,101240.13
2023-03-12T17:30:32.786Z,101245.59
2023-03-12T17:33:10.974Z,101245.06
2023-03-12T17:35:41.404Z,101231.50
2023-03-12T17:38:11.978Z,101239.50
2023-03-12T17:40:46.128Z,101232.53
2023-03-12T17:43:15.671Z,101235.41
2023-03-12T17:45:45.240Z,101226.06
2023-03-12T17:48:14.957Z,101226.69
2023-03-12T17:50:44.614Z,101226.06
2023-03-12T17:53:15.068Z,101222.56
2023-03-12T17:55:44.842Z,101217.41
2023-03-12T17:58:14.438Z,101221.94
2023-03-12T18:00:44.040Z,101210.97
2023-03-12T18:03:13.608Z,101212.09
2023-03-12T18:05:46.119Z,101220.31
2023-03-12T18:08:16.682Z,101217.53
2023-03-12T18:10:46.959Z,101212.59
2023-03-12T18:13:16.552Z,101213.72
2023-03-12T18:15:55.276Z,101217.94
2023-03-12T18:18:27.017Z,101212.81
2023-03-12T18:20:56.838Z,101224.94
2023-03-12T18:23:27.168Z,101224.84
2023-03-12T18:25:56.733Z,101213.63
2023-03-12T18:28:26.341Z,101210.66
2023-03-12T18:30:56.394Z,101212.50
2023-03-12T18:33:26.004Z,101211.88
2023-03-12T18:35:55.588Z,101206.44
2023-03-12T18:38:25.139Z,101219.91
2023-03-12T18:40:55.311Z,101215.50
2023-03-12T18:43:24.929Z,101227.28
2023-03-12T18:45:54.516Z,101229.03
2023-03-12T18:48:24.104Z,101221.66
2023-03-12T18:50:53.699Z,101223.28
2023-03-12T18:53:23.342Z,101227.19
2023-03-12T18:55:57.948Z,101232.94
2023-03-12T18:58:29.328Z,101233.38
2023-03-12T19:01:00.858Z,101232.66
2023-03-12T19:03:35.262Z,101230.38
2023-03-12T19:06:09.447Z,101221.97
2023-03-12T19:08:39.607Z,101224.75
2023-03-12T19:11:11.351Z,101233.88
2023-03-12T19:13:41.716Z,101236.66
2023-03-12T19:16:13.705Z,101232.84
2023-03-12T19:18:43.264Z,101240.25
2023-03-12T19:21:12.882Z,101238.41
2023-03-12T19:23:42.593Z,101231.28
2023-03-12T19:26:12.348Z,101234.38
2023-03-12T19:28:42.498Z,101235.94
2023-03-12T19:31:16.620Z,101245.09
2023-03-12T19:33:46.340Z,101246.72
2023-03-12T19:36:15.992Z,101250.63
2023-03-12T19:38:45.600Z,101240.03
2023-03-12T19:41:15.200Z,101237.78
2023-03-12T19:43:45.178Z,101244.56
2023-03-12T19:46:14.822Z,101250.13
2023-03-12T19:48:44.390Z,101258.59
2023-03-12T19:51:14.175Z,101259.88
2023-03-12T19:53:43.952Z,101277.63
2023-03-12T19:56:13.519Z,101280.00
2023-03-12T19:58:43.253Z,101276.59
2023-03-12T20:01:12.843Z,101279.75
2023-03-12T20:03:44.163Z,101287.06
2023-03-12T20:06:14.732Z,101292.59
2023-03-12T20:08:45.981Z,101291.47
2023-03-12T20:11:15.520Z,101303.16
2023-03-12T20:13:45.216Z,101297.31
2023-03-12T20:16:15.417Z,101285.31
2023-03-12T20:18:45.405Z,101295.38
2023-03-12T20:21:15.047Z,101297.63
2023-03-12T20:23:44.624Z,101303.78
2023-03-12T20:26:16.280Z,101311.59
2023-03-12T20:28:45.896Z,101315.91
2023-03-12T20:31:17.701Z,101315.56
2023-03-12T20:33:47.336Z,101324.31
2023-03-12T20:36:17.022Z,101329.88
2023-03-12T20:38:46.562Z,101326.97
2023-03-12T20:41:16.991Z,101340.84
2023-03-12T20:43:47.088Z,101334.38
2023-03-12T20:46:16.801Z,101334.38
2023-03-12T20:48:46.347Z,101346.81
2023-03-12T20:51:16.005Z,101349.88
2023-03-12T20:53:45.801Z,101346.59
2023-03-12T20:56:15.422Z,101358.19
2023-03-12T20:58:45.814Z,101345.47
2023-03-12T21:01:15.797Z,101348.34
2023-03-12T21:03:51.135Z,101350.06
2023-03-12T21:06:20.822Z,101344.97
2023-03-12T21:09:20.689Z,101344.13
2023-03-12T21:16:28.647Z,101350.78
2023-03-12T21:22:28.117Z,101335.84
2023-03-12T21:25:01.723Z,101342.50
2023-03-12T21:28:17.202Z,101344.06
2023-03-12T21:30:50.531Z,101344.56
2023-03-12T21:36:37.676Z,101338.88
2023-03-12T21:39:23.974Z,101338.94
2023-03-12T21:42:02.283Z,101341.28
2023-03-12T21:44:34.916Z,101335.06
2023-03-12T21:47:16.039Z,101334.25
2023-03-12T21:49:48.665Z,101349.69
2023-03-12T21:52:20.117Z,101341.81
2023-03-12T21:55:07.086Z,101345.28
2023-03-12T21:57:42.964Z,101350.53
2023-03-12T22:00:44.447Z,101351.47
2023-03-12T22:03:20.328Z,101346.91
2023-03-12T22:05:58.816Z,101348.34
2023-03-12T22:08:33.571Z,101356.69
2023-03-12T22:11:36.076Z,101363.38
2023-03-12T22:14:26.058Z,101360.25
2023-03-12T22:17:05.253Z,101363.66
2023-03-12T22:19:49.971Z,101353.78
2023-03-12T22:22:37.630Z,101359.50
2023-03-12T22:25:20.200Z,101357.41
2023-03-12T22:27:59.578Z,101365.38
2023-03-12T22:33:43.954Z,101356.72
2023-03-12T22:36:21.922Z,101362.31
2023-03-12T22:38:51.861Z,101358.59
2023-03-12T22:41:48.799Z,101371.03
2023-03-12T22:47:41.798Z,101354.22
2023-03-12T22:58:07.441Z,101353.59
2023-03-12T23:02:58.289Z,101355.34
2023-03-12T23:05:36.238Z,101364.09
2023-03-12T23:08:20.468Z,101366.72
2023-03-12T23:11:29.161Z,101366.22
2023-03-12T23:14:12.175Z,101361.16
2023-03-12T23:16:59.083Z,101361.50
2023-03-12T23:19:52.300Z,101355.78
2023-03-12T23:23:04.287Z,101351.59
2023-03-12T23:26:30.395Z,101351.88
2023-03-12T23:29:12.259Z,101360.13
2023-03-12T23:31:54.305Z,101349.84
2023-03-12T23:34:49.372Z,101336.56
2023-03-12T23:37:54.334Z,101343.13
2023-03-12T23:40:24.135Z,101354.66
2023-03-12T23:42:57.138Z,101362.91
2023-03-12T23:45:33.306Z,101351.72
2023-03-12T23:48:21.143Z,101354.69
2023-03-12T23:50:57.476Z,101350.88
2023-03-12T23:53:30.122Z,101348.03
2023-03-12T23:56:01.777Z,101349.19
2023-03-12T23:58:34.500Z,101345.91
